createdAt,value
2018-12-23T00:00:14.236Z,9.00
2018-12-23T00:02:48.176Z,9.00
2018-12-23T00:05:20.257Z,8.90
2018-12-23T00:10:20.330Z,8.70
2018-12-23T00:12:48.912Z,8.70
2018-12-23T00:15:21.288Z,8.70
2018-12-23T00:17:53.398Z,8.70
2018-12-23T00:20:20.944Z,8.70
2018-12-23T00:22:48.466Z,8.80
2018-12-23T00:25:21.588Z,8.70
2018-12-23T00:27:49.160Z,8.80
2018-12-23T00:30:16.692Z,8.80
2018-12-23T00:32:49.447Z,8.80
2018-12-23T00:37:49.617Z,8.70
2018-12-23T00:40:17.146Z,8.70
2018-12-23T00:42:49.473Z,8.70
2018-12-23T00:45:23.279Z,8.60
2018-12-23T00:47:50.743Z,8.60
2018-12-23T00:50:18.253Z,8.50
2018-12-23T00:52:50.538Z,8.40
2018-12-23T00:55:19.608Z,8.40
2018-12-23T00:57:48.289Z,8.30
2018-12-23T01:00:17.403Z,8.30
2018-12-23T01:02:48.981Z,8.20
2018-12-23T01:05:16.871Z,8.20
2018-12-23T01:07:45.247Z,8.20
2018-12-23T01:10:17.129Z,8.20
2018-12-23T01:12:44.573Z,8.10
2018-12-23T01:15:12.075Z,8.20
2018-12-23T01:17:44.797Z,8.10
2018-12-23T01:20:14.129Z,8.20
2018-12-23T01:22:43.345Z,8.10
2018-12-23T01:25:11.681Z,8.10
2018-12-23T01:27:43.895Z,8.20
2018-12-23T01:30:11.451Z,8.10
2018-12-23T01:32:38.937Z,8.10
2018-12-23T01:35:11.596Z,8.20
2018-12-23T01:37:39.051Z,8.20
2018-12-23T01:40:06.641Z,8.20
2018-12-23T01:42:38.841Z,8.20
2018-12-23T01:45:11.415Z,8.20
2018-12-23T01:47:38.887Z,8.20
2018-12-23T01:50:06.599Z,8.20
2018-12-23T01:52:38.311Z,8.20
2018-12-23T01:55:06.019Z,8.30
2018-12-23T01:57:33.497Z,8.30
2018-12-23T02:00:05.646Z,8.20
2018-12-23T02:02:33.101Z,8.30
2018-12-23T02:05:00.573Z,8.30
2018-12-23T02:07:31.379Z,8.20
2018-12-23T02:09:59.163Z,8.20
2018-12-23T02:12:26.639Z,8.20
2018-12-23T02:14:56.889Z,8.30
2018-12-23T02:17:24.708Z,8.30
2018-12-23T02:19:54.027Z,8.30
2018-12-23T02:22:25.776Z,8.30
2018-12-23T02:24:53.253Z,8.40
2018-12-23T02:27:20.727Z,8.40
2018-12-23T02:29:52.799Z,8.40
2018-12-23T02:32:20.256Z,8.30
2018-12-23T02:34:47.735Z,8.40
2018-12-23T02:37:20.652Z,8.30
2018-12-23T02:39:53.351Z,8.30
2018-12-23T02:42:20.909Z,8.40
2018-12-23T02:44:48.368Z,8.40
2018-12-23T02:47:19.724Z,8.40
2018-12-23T02:49:47.197Z,8.40
2018-12-23T02:52:14.783Z,8.40
2018-12-23T02:54:46.650Z,8.30
2018-12-23T02:57:14.261Z,8.30
2018-12-23T02:59:41.724Z,8.20
2018-12-23T03:02:13.672Z,8.20
2018-12-23T03:04:41.128Z,8.20
2018-12-23T03:07:08.736Z,8.20
2018-12-23T03:09:44.490Z,8.10
2018-12-23T03:12:14.843Z,8.10
2018-12-23T03:14:42.288Z,8.10
2018-12-23T03:17:09.798Z,8.10
2018-12-23T03:19:43.780Z,8.00
2018-12-23T03:22:15.836Z,8.00
2018-12-23T03:24:43.649Z,8.20
2018-12-23T03:27:11.416Z,8.10
2018-12-23T03:29:42.664Z,8.10
2018-12-23T03:32:10.283Z,8.10
2018-12-23T03:34:38.095Z,8.10
2018-12-23T03:37:09.118Z,8.20
2018-12-23T03:39:38.166Z,8.20
2018-12-23T03:42:05.676Z,8.30
2018-12-23T03:44:35.974Z,8.30
2018-12-23T03:47:04.116Z,8.20
2018-12-23T03:49:32.460Z,8.20
2018-12-23T03:52:03.116Z,8.30
2018-12-23T03:57:02.884Z,8.40
2018-12-23T03:59:30.427Z,8.40
2018-12-23T04:02:02.654Z,8.40
2018-12-23T04:04:30.165Z,8.40
2018-12-23T04:06:58.214Z,8.40
2018-12-23T04:09:29.981Z,8.40
2018-12-23T04:12:00.523Z,8.50
2018-12-23T04:14:29.906Z,8.50
2018-12-23T04:16:57.488Z,8.50
2018-12-23T04:19:29.800Z,8.40
2018-12-23T04:21:57.426Z,8.40
2018-12-23T04:24:24.888Z,8.40
2018-12-23T04:26:57.430Z,8.30
2018-12-23T04:29:25.006Z,8.30
2018-12-23T04:31:53.860Z,8.30
2018-12-23T04:34:24.584Z,8.30
2018-12-23T04:39:24.112Z,8.30
2018-12-23T04:41:51.645Z,8.50
2018-12-23T04:44:23.358Z,8.40
2018-12-23T04:46:51.068Z,8.40
2018-12-23T04:49:18.570Z,8.30
2018-12-23T04:51:47.236Z,8.40
2018-12-23T04:54:14.693Z,8.30
2018-12-23T04:56:45.939Z,8.40
2018-12-23T04:59:18.227Z,8.30
2018-12-23T05:01:45.677Z,8.30
2018-12-23T05:04:13.140Z,8.30
2018-12-23T05:06:45.653Z,8.30
2018-12-23T05:09:17.961Z,8.30
2018-12-23T05:11:45.418Z,8.30
2018-12-23T05:14:12.921Z,8.30
2018-12-23T05:16:45.307Z,8.40
2018-12-23T05:19:12.765Z,8.40
2018-12-23T05:21:40.607Z,8.40
2018-12-23T05:24:12.872Z,8.50
2018-12-23T05:26:40.344Z,8.50
2018-12-23T05:29:07.877Z,8.60
2018-12-23T05:31:40.031Z,8.60
2018-12-23T05:34:08.106Z,8.60
2018-12-23T05:36:36.004Z,8.50
2018-12-23T05:39:06.881Z,8.50
2018-12-23T05:41:39.267Z,8.50
2018-12-23T05:44:06.721Z,8.50
2018-12-23T05:46:34.182Z,8.50
2018-12-23T05:49:06.266Z,8.50
2018-12-23T05:51:33.740Z,8.40
2018-12-23T05:54:01.520Z,8.50
2018-12-23T05:56:32.946Z,8.50
2018-12-23T05:59:00.386Z,8.50
2018-12-23T06:01:27.856Z,8.50
2018-12-23T06:03:59.176Z,8.40
2018-12-23T06:06:26.792Z,8.40
2018-12-23T06:08:54.226Z,8.50
2018-12-23T06:11:27.066Z,8.40
2018-12-23T06:13:54.520Z,8.40
2018-12-23T06:16:21.976Z,8.40
2018-12-23T06:18:55.716Z,8.30
2018-12-23T06:21:28.266Z,8.30
2018-12-23T06:23:56.021Z,8.30
2018-12-23T06:26:23.563Z,8.40
2018-12-23T06:28:54.270Z,8.40
2018-12-23T06:31:21.772Z,8.40
2018-12-23T06:33:49.225Z,8.40
2018-12-23T06:36:21.588Z,8.40
2018-12-23T06:41:21.201Z,8.40
2018-12-23T06:43:48.683Z,8.50
2018-12-23T06:46:22.721Z,8.50
2018-12-23T06:48:56.692Z,8.50
2018-12-23T06:51:30.193Z,8.40
2018-12-23T06:54:00.617Z,8.40
2018-12-23T06:56:28.065Z,8.40
2018-12-23T06:58:56.692Z,8.40
2018-12-23T07:01:27.389Z,8.40
2018-12-23T07:03:56.490Z,8.50
2018-12-23T07:06:24.020Z,8.50
2018-12-23T07:08:57.403Z,8.50
2018-12-23T07:14:06.509Z,8.40
2018-12-23T07:16:40.217Z,8.40
2018-12-23T07:19:12.633Z,8.50
2018-12-23T07:21:40.069Z,8.50
2018-12-23T07:24:07.595Z,8.50
2018-12-23T07:26:39.295Z,8.40
2018-12-23T07:29:06.761Z,8.40
2018-12-23T07:31:34.217Z,8.50
2018-12-23T07:34:06.557Z,8.50
2018-12-23T07:36:38.899Z,8.50
2018-12-23T07:39:06.627Z,8.40
2018-12-23T07:41:34.176Z,8.50
2018-12-23T07:44:05.975Z,8.50
2018-12-23T07:46:33.487Z,8.50
2018-12-23T07:49:00.989Z,8.40
2018-12-23T07:51:34.617Z,8.40
2018-12-23T07:54:07.511Z,8.40
2018-12-23T07:56:34.957Z,8.50
2018-12-23T07:59:02.902Z,8.50
2018-12-23T08:01:38.237Z,8.40
2018-12-23T08:04:09.929Z,8.40
2018-12-23T08:06:41.963Z,8.50
2018-12-23T08:09:09.408Z,8.50
2018-12-23T08:11:36.950Z,8.40
2018-12-23T08:14:09.666Z,8.40
2018-12-23T08:16:43.634Z,8.30
2018-12-23T08:19:15.986Z,8.30
2018-12-23T08:21:43.816Z,8.50
2018-12-23T08:24:12.379Z,8.50
2018-12-23T08:26:46.246Z,8.40
2018-12-23T08:29:18.496Z,8.40
2018-12-23T08:31:51.827Z,8.40
2018-12-23T08:34:19.661Z,8.50
2018-12-23T08:36:47.193Z,8.40
2018-12-23T08:39:18.723Z,8.50
2018-12-23T08:41:46.174Z,8.50
2018-12-23T08:44:13.673Z,8.60
2018-12-23T08:46:48.127Z,8.50
2018-12-23T08:49:20.665Z,8.50
2018-12-23T08:51:54.116Z,8.60
2018-12-23T08:54:23.661Z,8.60
2018-12-23T08:56:51.977Z,8.60
2018-12-23T08:59:22.845Z,8.70
2018-12-23T09:01:56.268Z,8.80
2018-12-23T09:04:28.991Z,8.80
2018-12-23T09:09:29.351Z,8.90
2018-12-23T09:11:56.885Z,8.90
2018-12-23T09:14:30.658Z,8.70
2018-12-23T09:17:04.614Z,8.70
2018-12-23T09:19:38.030Z,8.80
2018-12-23T09:22:14.610Z,8.90
2018-12-23T09:24:46.470Z,9.00
2018-12-23T09:27:18.243Z,9.10
2018-12-23T09:29:46.509Z,9.10
2018-12-23T09:32:13.964Z,9.20
2018-12-23T09:34:45.532Z,9.10
2018-12-23T09:37:19.010Z,9.20
2018-12-23T09:39:54.098Z,9.10
2018-12-23T09:42:23.287Z,9.20
2018-12-23T09:44:52.769Z,9.20
2018-12-23T09:47:20.799Z,9.10
2018-12-23T09:49:50.013Z,9.00
2018-12-23T09:52:17.492Z,9.30
2018-12-23T09:54:49.212Z,9.30
2018-12-23T09:57:23.567Z,9.20
2018-12-23T09:59:56.345Z,9.30
2018-12-23T10:02:28.321Z,9.30
2018-12-23T10:04:55.787Z,9.30
2018-12-23T10:07:23.571Z,9.30
2018-12-23T10:09:55.281Z,9.40
2018-12-23T10:12:22.792Z,9.50
2018-12-23T10:14:50.391Z,9.50
2018-12-23T10:17:24.508Z,9.60
2018-12-23T10:22:32.133Z,9.70
2018-12-23T10:27:35.219Z,9.80
2018-12-23T10:30:03.903Z,9.70
2018-12-23T10:32:33.226Z,9.80
2018-12-23T10:35:05.909Z,9.80
2018-12-23T10:37:33.454Z,9.80
2018-12-23T10:40:00.919Z,9.90
2018-12-23T10:42:34.038Z,10.00
2018-12-23T10:45:06.606Z,9.90
2018-12-23T10:47:34.066Z,9.90
2018-12-23T10:50:01.625Z,9.90
2018-12-23T10:52:34.292Z,10.20
2018-12-23T10:57:41.152Z,10.20
2018-12-23T11:00:15.616Z,10.20
2018-12-23T11:02:43.237Z,10.10
2018-12-23T11:05:10.779Z,10.00
2018-12-23T11:07:42.896Z,10.00
2018-12-23T11:10:15.029Z,9.90
2018-12-23T11:12:42.474Z,9.90
2018-12-23T11:15:10.171Z,9.90
2018-12-23T11:17:44.247Z,9.90
2018-12-23T11:20:14.482Z,10.00
2018-12-23T11:22:42.621Z,9.90
2018-12-23T11:25:11.095Z,9.90
2018-12-23T11:27:44.769Z,10.00
2018-12-23T11:30:18.817Z,10.00
2018-12-23T11:32:49.897Z,9.90
2018-12-23T11:35:18.153Z,10.00
2018-12-23T11:37:45.694Z,10.00
2018-12-23T11:40:19.611Z,10.00
2018-12-23T11:42:52.323Z,10.10
2018-12-23T11:45:19.774Z,10.10
2018-12-23T11:47:47.232Z,10.10
2018-12-23T11:50:19.112Z,10.20
2018-12-23T11:55:20.315Z,10.10
2018-12-23T11:57:47.766Z,10.10
2018-12-23T12:00:19.800Z,10.00
2018-12-23T12:02:47.959Z,9.90
2018-12-23T12:07:54.604Z,9.80
2018-12-23T12:10:22.140Z,9.70
2018-12-23T12:12:55.842Z,9.70
2018-12-23T12:15:27.625Z,9.70
2018-12-23T12:17:55.376Z,9.70
2018-12-23T12:20:23.802Z,9.60
2018-12-23T12:22:56.075Z,9.60
2018-12-23T12:25:25.904Z,9.50
2018-12-23T12:27:54.683Z,9.60
2018-12-23T12:30:23.992Z,9.50
2018-12-23T12:32:56.395Z,9.50
2018-12-23T12:35:23.855Z,9.30
2018-12-23T12:37:51.306Z,9.30
2018-12-23T12:40:23.496Z,9.20
2018-12-23T12:45:23.459Z,9.20
2018-12-23T12:47:50.955Z,9.10
2018-12-23T12:50:23.613Z,9.20
2018-12-23T12:52:52.562Z,9.30
2018-12-23T12:55:21.231Z,9.40
2018-12-23T12:57:52.275Z,9.30
2018-12-23T13:00:24.955Z,9.30
2018-12-23T13:02:55.545Z,9.30
2018-12-23T13:05:23.178Z,9.10
2018-12-23T13:07:52.271Z,9.00
2018-12-23T13:12:51.825Z,8.90
2018-12-23T13:15:19.366Z,9.00
2018-12-23T13:17:51.707Z,9.00
2018-12-23T13:20:19.155Z,9.00
2018-12-23T13:22:46.636Z,9.10
2018-12-23T13:25:18.829Z,8.90
2018-12-23T13:27:46.286Z,8.90
2018-12-23T13:30:13.821Z,8.90
2018-12-23T13:32:47.373Z,8.80
2018-12-23T13:35:19.916Z,8.90
2018-12-23T13:37:49.673Z,8.80
2018-12-23T13:40:32.119Z,8.80
2018-12-23T13:43:07.304Z,8.80
2018-12-23T13:45:58.714Z,8.80
2018-12-23T13:48:42.722Z,8.70
2018-12-23T13:51:36.701Z,8.70
2018-12-23T13:54:09.401Z,8.70
2018-12-23T13:56:44.452Z,8.70
2018-12-23T13:59:35.657Z,8.70
2018-12-23T14:02:20.456Z,8.70
2018-12-23T14:04:57.192Z,8.70
2018-12-23T14:11:32.189Z,8.70
2018-12-23T14:14:12.758Z,8.60
2018-12-23T14:16:41.424Z,8.60
2018-12-23T14:19:48.630Z,8.70
2018-12-23T14:22:37.556Z,8.60
2018-12-23T14:25:27.057Z,8.70
2018-12-23T14:28:16.734Z,8.60
2018-12-23T14:31:06.184Z,8.60
2018-12-23T14:33:55.682Z,8.60
2018-12-23T14:37:04.261Z,8.60
2018-12-23T14:39:52.256Z,8.60
2018-12-23T14:42:21.985Z,8.60
2018-12-23T14:45:10.603Z,8.60
2018-12-23T14:48:17.842Z,8.60
2018-12-23T14:51:05.760Z,8.60
2018-12-23T14:56:59.727Z,8.60
2018-12-23T15:00:08.518Z,8.70
2018-12-23T15:02:56.441Z,8.70
2018-12-23T15:05:44.323Z,8.70
2018-12-23T15:08:51.743Z,8.70
2018-12-23T15:11:39.948Z,8.60
2018-12-23T15:17:54.798Z,8.60
2018-12-23T15:20:42.651Z,8.60
2018-12-23T15:23:11.229Z,8.60
2018-12-23T15:25:59.954Z,8.50
2018-12-23T15:29:09.078Z,8.60
2018-12-23T15:32:22.303Z,8.60
2018-12-23T15:35:13.490Z,8.50
2018-12-23T15:38:17.270Z,8.50
2018-12-23T15:40:53.346Z,8.50
2018-12-23T15:44:00.534Z,8.50
2018-12-23T15:46:51.839Z,8.40
2018-12-23T15:49:39.945Z,8.40
2018-12-23T15:52:49.798Z,8.40
2018-12-23T15:55:37.747Z,8.40
2018-12-23T15:58:19.598Z,8.40
2018-12-23T16:01:00.245Z,8.40
2018-12-23T16:03:48.612Z,8.50
2018-12-23T16:06:36.512Z,8.50
2018-12-23T16:09:24.410Z,8.50
2018-12-23T16:15:19.635Z,8.40
2018-12-23T16:18:28.519Z,8.40
2018-12-23T16:20:57.345Z,8.40
2018-12-23T16:23:45.771Z,8.40
2018-12-23T16:26:34.734Z,8.40
2018-12-23T16:29:42.807Z,8.40
2018-12-23T16:32:30.709Z,8.50
2018-12-23T16:35:39.359Z,8.60
2018-12-23T16:38:27.447Z,8.60
2018-12-23T16:41:15.370Z,8.60
2018-12-23T16:44:03.572Z,8.60
2018-12-23T16:46:51.802Z,8.60
2018-12-23T16:49:59.003Z,8.60
2018-12-23T16:52:47.118Z,8.60
2018-12-23T16:55:55.994Z,8.50
2018-12-23T16:58:43.974Z,8.60
2018-12-23T17:01:52.686Z,8.50
2018-12-23T17:04:40.661Z,8.50
2018-12-23T17:07:28.619Z,8.60
2018-12-23T17:10:18.036Z,8.60
2018-12-23T17:13:07.543Z,8.60
2018-12-23T17:15:55.505Z,8.60
2018-12-23T17:22:11.750Z,8.70
2018-12-23T17:25:15.013Z,8.80
2018-12-23T17:28:05.004Z,8.90
2018-12-23T17:30:41.276Z,8.90
2018-12-23T17:33:30.693Z,8.80
2018-12-23T17:36:31.028Z,8.60
2018-12-23T17:39:22.203Z,8.70
2018-12-23T17:41:38.706Z,8.70
2018-12-23T17:44:28.501Z,8.80
2018-12-23T17:46:58.422Z,8.90
2018-12-23T17:50:05.760Z,8.70
2018-12-23T17:52:53.612Z,8.60
2018-12-23T17:55:41.520Z,8.70
2018-12-23T17:58:48.713Z,8.80
2018-12-23T18:01:57.418Z,8.70
2018-12-23T18:04:45.270Z,8.70
2018-12-23T18:07:33.233Z,8.60
2018-12-23T18:10:25.106Z,8.50
2018-12-23T18:13:11.025Z,8.80
2018-12-23T18:15:59.049Z,8.80
2018-12-23T18:19:06.339Z,8.70
2018-12-23T18:21:54.343Z,8.80
2018-12-23T18:24:42.312Z,8.80
2018-12-23T18:27:49.831Z,8.80
2018-12-23T18:30:37.796Z,8.70
2018-12-23T18:33:26.247Z,8.70
2018-12-23T18:36:35.023Z,8.70
2018-12-23T18:39:24.655Z,8.80
2018-12-23T18:41:54.627Z,8.80
2018-12-23T18:45:01.893Z,8.80
2018-12-23T18:47:49.946Z,8.70
2018-12-23T18:50:38.990Z,8.90
2018-12-23T18:53:27.374Z,8.80
2018-12-23T18:56:16.239Z,8.90
2018-12-23T18:59:23.433Z,8.90
2018-12-23T19:02:13.293Z,9.00
2018-12-23T19:05:01.508Z,9.10
2018-12-23T19:07:49.943Z,9.10
2018-12-23T19:10:58.903Z,9.20
2018-12-23T19:14:08.742Z,9.30
2018-12-23T19:17:18.218Z,9.40
2018-12-23T19:19:59.073Z,9.70
2018-12-23T19:22:42.330Z,9.70
2018-12-23T19:25:23.038Z,9.70
2018-12-23T19:28:12.524Z,9.80
2018-12-23T19:31:01.953Z,9.80
2018-12-23T19:34:23.530Z,9.80
2018-12-23T19:40:01.721Z,9.90
2018-12-23T19:42:51.120Z,10.00
2018-12-23T19:45:58.584Z,10.10
2018-12-23T19:52:01.106Z,10.20
2018-12-23T19:55:08.416Z,10.30
2018-12-23T19:58:17.132Z,10.40
2018-12-23T20:01:28.974Z,10.50
2018-12-23T20:04:36.221Z,10.60
2018-12-23T20:07:43.502Z,10.80
2018-12-23T20:10:58.802Z,10.80
2018-12-23T20:14:03.362Z,10.90
2018-12-23T20:20:19.395Z,11.00
2018-12-23T20:23:26.605Z,11.10
2018-12-23T20:26:16.094Z,11.10
2018-12-23T20:29:42.268Z,11.10
2018-12-23T20:32:36.067Z,11.10
2018-12-23T20:35:25.562Z,11.10
2018-12-23T20:38:32.780Z,11.10
2018-12-23T20:41:16.950Z,11.20
2018-12-23T20:43:57.878Z,11.10
2018-12-23T20:46:42.013Z,11.10
2018-12-23T20:49:50.159Z,11.10
2018-12-23T20:52:57.363Z,11.10
2018-12-23T20:55:46.842Z,11.10
2018-12-23T20:58:36.758Z,11.10
2018-12-23T21:01:47.881Z,11.10
2018-12-23T21:04:55.123Z,11.10
2018-12-23T21:08:03.922Z,11.10
2018-12-23T21:10:53.371Z,11.10
2018-12-23T21:14:00.591Z,11.10
2018-12-23T21:16:50.067Z,11.10
2018-12-23T21:19:39.466Z,11.10
2018-12-23T21:26:00.063Z,11.10
2018-12-23T21:29:07.376Z,11.10
2018-12-23T21:32:01.125Z,11.10
2018-12-23T21:41:27.097Z,9.80
2018-12-23T21:46:50.023Z,9.50
2018-12-23T21:49:30.481Z,9.40
2018-12-23T21:52:11.528Z,9.40
2018-12-23T21:54:52.039Z,9.30
2018-12-23T21:57:32.457Z,9.20
2018-12-23T22:00:13.034Z,9.20
2018-12-23T22:02:54.701Z,9.20
2018-12-23T22:05:35.645Z,9.00
2018-12-23T22:08:50.490Z,8.90
2018-12-23T22:11:57.696Z,8.80
2018-12-23T22:14:45.613Z,8.70
2018-12-23T22:17:38.065Z,8.60
2018-12-23T22:20:25.963Z,8.60
2018-12-23T22:23:14.004Z,8.50
2018-12-23T22:26:01.981Z,8.50
2018-12-23T22:31:44.361Z,8.30
2018-12-23T22:34:32.382Z,8.20
2018-12-23T22:37:18.532Z,8.00
2018-12-23T22:39:57.364Z,7.90
2018-12-23T22:42:42.571Z,7.70
2018-12-23T22:45:23.402Z,7.60
2018-12-23T22:51:01.562Z,7.60
2018-12-23T22:53:49.510Z,7.50
2018-12-23T22:56:39.259Z,7.50
2018-12-23T22:59:27.088Z,7.40
2018-12-23T23:02:15.097Z,7.30
2018-12-23T23:04:55.662Z,7.30
2018-12-23T23:07:36.949Z,7.30
2018-12-23T23:10:17.453Z,7.20
2018-12-23T23:13:01.217Z,7.20
2018-12-23T23:15:41.916Z,7.20
2018-12-23T23:18:23.410Z,7.20
2018-12-23T23:21:04.596Z,7.20
2018-12-23T23:23:47.329Z,7.20
2018-12-23T23:26:27.909Z,7.30
2018-12-23T23:28:56.583Z,7.20
2018-12-23T23:31:45.222Z,7.20
2018-12-23T23:34:34.277Z,7.20
2018-12-23T23:37:41.492Z,7.20
2018-12-23T23:40:29.437Z,7.20
2018-12-23T23:43:18.365Z,7.20
2018-12-23T23:46:07.831Z,7.20
2018-12-23T23:48:57.229Z,7.20
2018-12-23T23:52:04.730Z,7.20
2018-12-23T23:54:54.611Z,7.10
2018-12-23T23:57:42.482Z,7.10
